This is the latest recevied weather packets stored in our database for station/object Sauldorf. If no packets are shown the sender has not sent any weather packets the latest 10 day(s).
| Time | Temp. | Humidity | Pressure | Rain* | Wind** | Luminosity | Snow |
|---|---|---|---|---|---|---|---|
| 1777501931 | 8.89° C | 44% | 1021.5 hPa | 0 mm | - | - | - |
| 1777498329 | 10° C | 41% | 1021.2 hPa | 0 mm | - | - | - |
| 1777496530 | 10.56° C | 39% | 1020.9 hPa | 0 mm | - | - | - |
| 1777494730 | 11.11° C | 38% | 1020.7 hPa | 0 mm | - | - | - |
| 1777492929 | 11.67° C | 38% | 1020.3 hPa | 0 mm | - | - | - |
| 1777491129 | 12.22° C | 38% | 1020 hPa | 0 mm | - | - | - |
| 1777489330 | 12.78° C | 38% | 1019.6 hPa | 0 mm | - | - | - |
| 1777487531 | 13.89° C | 38% | 1019.2 hPa | 0 mm | - | - | - |
| 1777485731 | 14.44° C | 38% | 1018.8 hPa | 0 mm | - | - | - |
| 1777483931 | 15.56° C | 38% | 1018.3 hPa | 0 mm | - | - | - |
| 1777482131 | 16.11° C | 38% | 1018.3 hPa | 0 mm | - | - | - |
| 1777480336 | 16.67° C | 39% | 1018.2 hPa | 0 mm | - | - | - |
| 1777478530 | 16.67° C | 39% | 1018.1 hPa | 0 mm | - | - | - |
| 1777476730 | 17.22° C | 37% | 1018.1 hPa | 0 mm | - | - | - |
| 1777474931 | 17.22° C | 36% | 1018 hPa | 0 mm | - | - | - |
| 1777473135 | 17.22° C | 34% | 1017.9 hPa | 0 mm | - | - | - |
| 1777471331 | 17.22° C | 34% | 1017.9 hPa | 0 mm | - | - | - |
| 1777469531 | 17.22° C | 36% | 1017.8 hPa | 0 mm | - | - | - |
| 1777467730 | 17.22° C | 39% | 1017.8 hPa | 0 mm | - | - | - |
| 1777465932 | 17.22° C | 42% | 1017.9 hPa | 0 mm | - | - | - |
| 1777464131 | 16.67° C | 42% | 1017.9 hPa | 0 mm | - | - | - |
| 1777462330 | 16.67° C | 42% | 1017.8 hPa | 0 mm | - | - | - |
| 1777460530 | 16.11° C | 45% | 1017.9 hPa | 0 mm | - | - | - |
| 1777458730 | 15.56° C | 48% | 1017.9 hPa | 0 mm | - | - | - |
| 1777456931 | 14.44° C | 49% | 1017.8 hPa | 0 mm | - | - | - |
* Rain since midnight (hover to see other rain measurements)
** Current wind speed in m/s (hover to see current wind gust speed)